Notice: Undefined index: language in /home/u908952976/domains/airgaviota-va.com/public_html/vam/index.php on line 25
AirGaviota-VA

... VIRTUAL FLIGHT...OUR PASSION



 FLIGHT DETAILS
Pilot: GVT462 Peter Voksan Aircraft: AN24_FELIS CUBANA Distance: 87NM
Departure MUHA Arrival MUNG Duration 00:27
Validation Validated Type Charter Tail Number GV-AAN
ZFW 17463 Block Fuel/Initial FOB 549/0 Flight Fuel 378
Passengers 22 Cargo 0 Alternate MUSN
Departure Time 1220 Cruise Speed 200 Flight Level 6000
Flight Type IFR Aircraft Type AN24 Weight Unit Kg
Date 19-04-2020 Pilot Comments Network IVAO
Crashed No Validator Comments Flight Rating -30

 ROUTE
ROUTE UHA
REMARKS
 FLIGHT FAILURES
Crashed OK Beacon off & Engine Running Fail KIAS Above 250 below 10000 FT OK
Lights OFF below 10000 FT OK Lights ON above 10000 FT OK Stall OK
Overspeed OK Flight paused OK Refueling OK
Slew detected OK Taxi & Taxi lights off Fail Take off & lights off OK
Landing & lights off OK Landed in not planned airport OK Taxi Speed OK
Wrong altimeter in Take off OK Wrong altimeter in Landing OK
 LANDING ANALYSIS
Landing wind 132º/3 kt Landing heading 355
Landing VS: -107.65 ft/min Landing IAS: 100.87 kt
Landing Force G 1 G Landing Bank 0.1
Landing Pitch -0.1 Landing Flaps 38
Navigation Lights ON Landing Lights ON
Beacon Lights ON Strobe Lights OFF
 FLIGHT MAP
 ALTITUDE CHART
 FLIGHT FINANCIAL REPORT
 MAIN EVENTS
DATE EVENTIASALTITUDE
2020-04-19 14:04:17 SIM ACARS version 1.4.10219
2020-04-19 14:04:17 BOARDING0219
2020-04-19 14:05:10 STARTING ENGINE 3 0219
2020-04-19 14:06:13 STARTING ENGINE 2 0219
2020-04-19 14:07:26 STARTING ENGINE 1 0219
2020-04-19 14:08:31 STOPPING ENGINE 3 0219
2020-04-19 14:12:54 FLAPS EXTENSION 0 % 0219
2020-04-19 14:12:55 FLAPS EXTENSION 2 % 0219
2020-04-19 14:12:55 FLAPS EXTENSION 3 % 0219
2020-04-19 14:12:55 FLAPS EXTENSION 4 % 0219
2020-04-19 14:12:55 FLAPS EXTENSION 6 % 0219
2020-04-19 14:12:55 FLAPS EXTENSION 7 % 0219
2020-04-19 14:12:55 FLAPS EXTENSION 8 % 0219
2020-04-19 14:12:55 FLAPS EXTENSION 10 % 0219
2020-04-19 14:12:56 FLAPS EXTENSION 11 % 0219
2020-04-19 14:12:56 FLAPS EXTENSION 12 % 0219
2020-04-19 14:12:56 FLAPS EXTENSION 13 % 0219
2020-04-19 14:12:56 FLAPS EXTENSION 14 % 0219
2020-04-19 14:12:57 FLAPS EXTENSION 18 % 0219
2020-04-19 14:12:57 FLAPS EXTENSION 19 % 0219
2020-04-19 14:12:57 FLAPS EXTENSION 20 % 0219
2020-04-19 14:12:57 FLAPS EXTENSION 21 % 0219
2020-04-19 14:12:57 FLAPS EXTENSION 22 % 0219
2020-04-19 14:12:58 FLAPS EXTENSION 23 % 0219
2020-04-19 14:12:58 FLAPS EXTENSION 25 % 0219
2020-04-19 14:12:58 FLAPS EXTENSION 26 % 0219
2020-04-19 14:12:58 FLAPS EXTENSION 27 % 0219
2020-04-19 14:12:58 FLAPS EXTENSION 29 % 0219
2020-04-19 14:12:59 FLAPS EXTENSION 30 % 0219
2020-04-19 14:12:59 FLAPS EXTENSION 31 % 0219
2020-04-19 14:12:59 FLAPS EXTENSION 32 % 0219
2020-04-19 14:12:59 FLAPS EXTENSION 33 % 0219
2020-04-19 14:13:00 FLAPS EXTENSION 35 % 0219
2020-04-19 14:13:00 FLAPS EXTENSION 35 % 0219
2020-04-19 14:13:00 FLAPS EXTENSION 36 % 0219
2020-04-19 14:13:00 FLAPS EXTENSION 37 % 0219
2020-04-19 14:13:41 TAXI TO THE RWY 13220
2020-04-19 14:13:41 TAXING WITH TAXI LIGHTS OFF13220
2020-04-19 14:21:08 ROLLING FOR TAKE OFF47219
2020-04-19 14:21:27 TAKE OFF110223
2020-04-19 14:21:40 GEAR UP107457
2020-04-19 14:21:40 GEAR DOWN107460
2020-04-19 14:21:47 FLAPS EXTENSION 36 % 108580
2020-04-19 14:21:47 FLAPS EXTENSION 34 % 108583
2020-04-19 14:21:47 FLAPS EXTENSION 33 % 107586
2020-04-19 14:21:47 FLAPS EXTENSION 31 % 107589
2020-04-19 14:21:47 FLAPS EXTENSION 29 % 108592
2020-04-19 14:21:48 FLAPS EXTENSION 26 % 109597
2020-04-19 14:21:53 DESCEND112648
2020-04-19 14:22:02 FLAPS EXTENSION 26 % 120756
2020-04-19 14:22:02 FLAPS EXTENSION 24 % 120758
2020-04-19 14:22:02 FLAPS EXTENSION 22 % 120760
2020-04-19 14:22:03 FLAPS EXTENSION 20 % 120763
2020-04-19 14:22:03 FLAPS EXTENSION 19 % 120766
2020-04-19 14:22:03 FLAPS EXTENSION 17 % 120768
2020-04-19 14:22:03 FLAPS EXTENSION 15 % 120772
2020-04-19 14:22:03 FLAPS EXTENSION 14 % 121774
2020-04-19 14:22:04 FLAPS EXTENSION 12 % 121777
2020-04-19 14:22:04 FLAPS EXTENSION 11 % 121780
2020-04-19 14:22:04 FLAPS EXTENSION 9 % 121782
2020-04-19 14:22:04 FLAPS EXTENSION 8 % 122785
2020-04-19 14:22:05 FLAPS EXTENSION 6 % 122787
2020-04-19 14:22:05 FLAPS EXTENSION 5 % 122790
2020-04-19 14:22:05 FLAPS EXTENSION 2 % 122795
2020-04-19 14:22:05 FLAPS EXTENSION 1 % 122797
2020-04-19 14:22:06 FLAPS EXTENSION 0 % 123799
2020-04-19 14:22:23 GEAR UP1341006
2020-04-19 14:22:28 GEAR DOWN1351075
2020-04-19 14:22:33 CLIMBING1401131
2020-04-19 14:24:47 GEAR UP1363704
2020-04-19 14:28:33 CRUISE1816063
2020-04-19 14:33:23 DESCEND2265916
2020-04-19 14:36:03 CRUISE2372864
2020-04-19 14:42:53 DESCEND2152706
2020-04-19 14:43:53 CRUISE2112478
2020-04-19 14:45:47 GEAR DOWN1472366
2020-04-19 14:46:03 DESCEND1441990
2020-04-19 14:46:12 FLAPS EXTENSION 1 % 1401781
2020-04-19 14:46:12 FLAPS EXTENSION 2 % 1401775
2020-04-19 14:46:12 FLAPS EXTENSION 6 % 1401765
2020-04-19 14:46:13 FLAPS EXTENSION 7 % 1401760
2020-04-19 14:46:13 FLAPS EXTENSION 8 % 1401754
2020-04-19 14:46:13 FLAPS EXTENSION 11 % 1401743
2020-04-19 14:46:19 FLAPS EXTENSION 12 % 1391619
2020-04-19 14:46:19 FLAPS EXTENSION 13 % 1391615
2020-04-19 14:46:20 FLAPS EXTENSION 15 % 1391612
2020-04-19 14:46:20 FLAPS EXTENSION 18 % 1391603
2020-04-19 14:46:20 FLAPS EXTENSION 19 % 1391599
2020-04-19 14:46:20 FLAPS EXTENSION 21 % 1391596
2020-04-19 14:46:21 FLAPS EXTENSION 22 % 1391592
2020-04-19 14:46:21 FLAPS EXTENSION 23 % 1381588
2020-04-19 14:46:25 FLAPS EXTENSION 24 % 1361522
2020-04-19 14:46:26 FLAPS EXTENSION 25 % 1361519
2020-04-19 14:46:26 FLAPS EXTENSION 27 % 1341516
2020-04-19 14:46:26 FLAPS EXTENSION 28 % 1341514
2020-04-19 14:46:26 FLAPS EXTENSION 30 % 1341513
2020-04-19 14:46:26 FLAPS EXTENSION 31 % 1341507
2020-04-19 14:46:27 FLAPS EXTENSION 32 % 1341503
2020-04-19 14:46:27 FLAPS EXTENSION 34 % 1331499
2020-04-19 14:46:27 FLAPS EXTENSION 35 % 1331497
2020-04-19 14:46:27 FLAPS EXTENSION 36 % 1331498
2020-04-19 14:46:28 FLAPS EXTENSION 38 % 1331491
2020-04-19 14:46:28 FLAPS EXTENSION 38 % 1331489
2020-04-19 14:46:40 FLAPS EXTENSION 39 % 1221282
2020-04-19 14:46:40 FLAPS EXTENSION 41 % 1221277
2020-04-19 14:46:40 FLAPS EXTENSION 42 % 1221277
2020-04-19 14:46:40 FLAPS EXTENSION 44 % 1231269
2020-04-19 14:46:40 FLAPS EXTENSION 45 % 1241265
2020-04-19 14:46:41 FLAPS EXTENSION 46 % 1231261
2020-04-19 14:46:41 FLAPS EXTENSION 48 % 1231257
2020-04-19 14:46:41 FLAPS EXTENSION 49 % 1231252
2020-04-19 14:46:41 FLAPS EXTENSION 50 % 1241249
2020-04-19 14:46:41 FLAPS EXTENSION 52 % 1241246
2020-04-19 14:46:42 FLAPS EXTENSION 53 % 1241242
2020-04-19 14:46:42 FLAPS EXTENSION 54 % 1241239
2020-04-19 14:46:42 FLAPS EXTENSION 55 % 1231236
2020-04-19 14:46:42 FLAPS EXTENSION 57 % 1221236
2020-04-19 14:46:42 FLAPS EXTENSION 58 % 1221229
2020-04-19 14:46:43 FLAPS EXTENSION 59 % 1211226
2020-04-19 14:46:43 FLAPS EXTENSION 60 % 1211223
2020-04-19 14:46:43 FLAPS EXTENSION 61 % 1201220
2020-04-19 14:46:43 FLAPS EXTENSION 62 % 1201216
2020-04-19 14:46:43 FLAPS EXTENSION 64 % 1201214
2020-04-19 14:46:44 FLAPS EXTENSION 65 % 1201211
2020-04-19 14:46:44 FLAPS EXTENSION 66 % 1191209
2020-04-19 14:46:44 FLAPS EXTENSION 67 % 1191205
2020-04-19 14:46:44 FLAPS EXTENSION 68 % 1191203
2020-04-19 14:46:44 FLAPS EXTENSION 69 % 1191200
2020-04-19 14:46:45 FLAPS EXTENSION 70 % 1191198
2020-04-19 14:46:45 FLAPS EXTENSION 71 % 1191195
2020-04-19 14:46:45 FLAPS EXTENSION 72 % 1191193
2020-04-19 14:46:45 FLAPS EXTENSION 73 % 1191191
2020-04-19 14:46:49 FLAPS EXTENSION 74 % 1191151
2020-04-19 14:46:49 FLAPS EXTENSION 75 % 1191149
2020-04-19 14:46:49 FLAPS EXTENSION 77 % 1191147
2020-04-19 14:46:49 FLAPS EXTENSION 78 % 1191145
2020-04-19 14:46:50 FLAPS EXTENSION 79 % 1181143
2020-04-19 14:46:50 FLAPS EXTENSION 80 % 1161142
2020-04-19 14:46:50 FLAPS EXTENSION 81 % 1161141
2020-04-19 14:46:50 FLAPS EXTENSION 83 % 1161140
2020-04-19 14:46:50 FLAPS EXTENSION 84 % 1161139
2020-04-19 14:46:51 FLAPS EXTENSION 85 % 1161138
2020-04-19 14:46:51 FLAPS EXTENSION 86 % 1151138
2020-04-19 14:46:51 FLAPS EXTENSION 87 % 1151138
2020-04-19 14:46:51 FLAPS EXTENSION 88 % 1151137
2020-04-19 14:46:51 FLAPS EXTENSION 88 % 1151137
2020-04-19 14:46:52 FLAPS EXTENSION 90 % 1151137
2020-04-19 14:46:52 FLAPS EXTENSION 91 % 1151137
2020-04-19 14:46:52 FLAPS EXTENSION 92 % 1151137
2020-04-19 14:46:52 FLAPS EXTENSION 93 % 1151137
2020-04-19 14:46:52 FLAPS EXTENSION 94 % 1141137
2020-04-19 14:46:53 FLAPS EXTENSION 95 % 1141137
2020-04-19 14:46:53 FLAPS EXTENSION 97 % 1141137
2020-04-19 14:46:53 FLAPS EXTENSION 98 % 1141137
2020-04-19 14:46:53 FLAPS EXTENSION 99 % 1141137
2020-04-19 14:46:54 FLAPS EXTENSION 100 % 1141138
2020-04-19 14:46:54 FLAPS EXTENSION 100 % 1141138
2020-04-19 14:49:33 CRUISE10697
2020-04-19 14:49:36 LANDING10193
2020-04-19 14:50:08 TAXI TO THE GATE1890
2020-04-19 14:50:13 BEACON LIGHT OFF & ENGINE ON1390
2020-04-19 14:51:32 FLAPS EXTENSION 98 % 1590
2020-04-19 14:51:32 FLAPS EXTENSION 97 % 1590
2020-04-19 14:51:32 FLAPS EXTENSION 95 % 1590
2020-04-19 14:51:32 FLAPS EXTENSION 94 % 1590
2020-04-19 14:51:32 FLAPS EXTENSION 92 % 1590
2020-04-19 14:51:33 FLAPS EXTENSION 91 % 1590
2020-04-19 14:51:33 FLAPS EXTENSION 89 % 1690
2020-04-19 14:51:33 FLAPS EXTENSION 88 % 1690
2020-04-19 14:51:33 FLAPS EXTENSION 87 % 1690
2020-04-19 14:51:34 FLAPS EXTENSION 85 % 1690
2020-04-19 14:51:34 FLAPS EXTENSION 84 % 1690
2020-04-19 14:51:34 FLAPS EXTENSION 83 % 1690
2020-04-19 14:51:34 FLAPS EXTENSION 80 % 1690
2020-04-19 14:51:35 FLAPS EXTENSION 79 % 1690
2020-04-19 14:51:35 FLAPS EXTENSION 78 % 1590
2020-04-19 14:51:35 FLAPS EXTENSION 77 % 1490
2020-04-19 14:51:35 FLAPS EXTENSION 75 % 1390
2020-04-19 14:51:36 FLAPS EXTENSION 74 % 1290
2020-04-19 14:51:36 FLAPS EXTENSION 73 % 1190
2020-04-19 14:51:36 FLAPS EXTENSION 72 % 1090
2020-04-19 14:51:36 FLAPS EXTENSION 71 % 990
2020-04-19 14:51:37 FLAPS EXTENSION 70 % 890
2020-04-19 14:51:37 FLAPS EXTENSION 69 % 790
2020-04-19 14:51:37 FLAPS EXTENSION 68 % 890
2020-04-19 14:51:37 FLAPS EXTENSION 67 % 889
2020-04-19 14:51:37 FLAPS EXTENSION 66 % 889
2020-04-19 14:51:38 FLAPS EXTENSION 65 % 890
2020-04-19 14:51:38 FLAPS EXTENSION 64 % 890
2020-04-19 14:51:38 FLAPS EXTENSION 63 % 890
2020-04-19 14:51:38 FLAPS EXTENSION 62 % 890
2020-04-19 14:51:39 FLAPS EXTENSION 60 % 790
2020-04-19 14:51:39 FLAPS EXTENSION 59 % 790
2020-04-19 14:51:39 FLAPS EXTENSION 58 % 890
2020-04-19 14:51:40 FLAPS EXTENSION 56 % 890
2020-04-19 14:51:40 FLAPS EXTENSION 55 % 889
2020-04-19 14:51:40 FLAPS EXTENSION 54 % 889
2020-04-19 14:51:40 FLAPS EXTENSION 53 % 890
2020-04-19 14:51:40 FLAPS EXTENSION 52 % 990
2020-04-19 14:51:41 FLAPS EXTENSION 51 % 990
2020-04-19 14:51:41 FLAPS EXTENSION 50 % 990
2020-04-19 14:51:41 FLAPS EXTENSION 49 % 990
2020-04-19 14:51:41 FLAPS EXTENSION 48 % 990
2020-04-19 14:51:42 FLAPS EXTENSION 48 % 990
2020-04-19 14:51:42 FLAPS EXTENSION 47 % 990
2020-04-19 14:51:42 FLAPS EXTENSION 46 % 1090
2020-04-19 14:51:42 FLAPS EXTENSION 45 % 1090
2020-04-19 14:51:43 FLAPS EXTENSION 44 % 1190
2020-04-19 14:51:43 FLAPS EXTENSION 43 % 1290
2020-04-19 14:51:43 FLAPS EXTENSION 41 % 1290
2020-04-19 14:51:43 FLAPS EXTENSION 40 % 1390
2020-04-19 14:51:44 FLAPS EXTENSION 39 % 1390
2020-04-19 14:51:44 FLAPS EXTENSION 37 % 1390
2020-04-19 14:51:44 FLAPS EXTENSION 37 % 1390
2020-04-19 14:51:45 FLAPS EXTENSION 36 % 1490
2020-04-19 14:51:45 FLAPS EXTENSION 35 % 1490
2020-04-19 14:51:45 FLAPS EXTENSION 34 % 1490
2020-04-19 14:51:45 FLAPS EXTENSION 33 % 1490
2020-04-19 14:51:45 FLAPS EXTENSION 32 % 1490
2020-04-19 14:51:46 FLAPS EXTENSION 32 % 1490
2020-04-19 14:52:40 STOPPING ENGINE 2 090
 ACARS DATA
DATE IASGSALTITUDEFUEL CONSUMED OATFLIGHT STATUS
2020-04-19 14:05:1600219121BOARDING
2020-04-19 14:06:1600219421BOARDING
2020-04-19 14:07:16002191121BOARDING
2020-04-19 14:08:16002192121BOARDING
2020-04-19 14:09:16002193022BOARDING
2020-04-19 14:10:16002193923BOARDING
2020-04-19 14:11:16002194723BOARDING
2020-04-19 14:12:16002195623BOARDING
2020-04-19 14:13:16022196523BOARDING
2020-04-19 14:14:16302197323TAXI TO THE RWY
2020-04-19 14:15:16202198823TAXI TO THE RWY
2020-04-19 14:16:1620172199523TAXI TO THE RWY
2020-04-19 14:17:16111221910323TAXI TO THE RWY
2020-04-19 14:18:163221911123TAXI TO THE RWY
2020-04-19 14:19:16252721912023TAXI TO THE RWY
2020-04-19 14:20:16131221912823TAXI TO THE RWY
2020-04-19 14:21:16808021913923TAXI TO THE RWY
2020-04-19 14:22:1613013191715921DESCEND
2020-04-19 14:23:16121129220918019CLIMBING
2020-04-19 14:24:16140145309119617CLIMBING
2020-04-19 14:25:16143152408621414CLIMBING
2020-04-19 14:26:16137151503922912CLIMBING
2020-04-19 14:27:16143156574724111CLIMBING
2020-04-19 14:28:16173188601025410CLIMBING
2020-04-19 14:29:16203224600826710CRUISE
2020-04-19 14:30:16217240602528010CRUISE
2020-04-19 14:31:16223246601829410CRUISE
2020-04-19 14:32:16225249600430410CRUISE
2020-04-19 14:33:16223245600032310CRUISE
2020-04-19 14:34:16239254461333313DESCEND
2020-04-19 14:35:16240250315634416DESCEND
2020-04-19 14:36:16234243286836017CRUISE
2020-04-19 14:37:16219229286137417CRUISE
2020-04-19 14:38:16216228286838717CRUISE
2020-04-19 14:39:16213229286740117CRUISE
2020-04-19 14:40:16215225286141517CRUISE
2020-04-19 14:41:16214224286443017CRUISE
2020-04-19 14:42:16210221288744517CRUISE
2020-04-19 14:43:16216227250745618DESCEND
2020-04-19 14:44:16203211246746818CRUISE
2020-04-19 14:45:16165172244747618CRUISE
2020-04-19 14:46:16140144167448420DESCEND
2020-04-19 14:47:16100100114149421DESCEND
2020-04-19 14:48:1610510565050722DESCEND
2020-04-19 14:49:1610710917252023DESCEND
2020-04-19 14:50:1611118953023TAXI TO THE GATE
2020-04-19 14:51:16688953823TAXI TO THE GATE
2020-04-19 14:52:16008954623TAXI TO THE GATE